createdAt,value
2022-11-16T00:00:35.563Z,20.26
2022-11-16T00:03:03.744Z,20.23
2022-11-16T00:05:30.299Z,20.21
2022-11-16T00:07:57.733Z,20.18
2022-11-16T00:10:24.352Z,20.17
2022-11-16T00:12:50.913Z,20.14
2022-11-16T00:15:17.455Z,20.12
2022-11-16T00:17:43.996Z,20.10
2022-11-16T00:20:10.947Z,20.08
2022-11-16T00:22:37.558Z,20.08
2022-11-16T00:25:04.531Z,20.05
2022-11-16T00:27:31.214Z,20.03
2022-11-16T00:29:57.768Z,20.01
2022-11-16T00:32:24.462Z,20.00
2022-11-16T00:34:51.018Z,19.98
2022-11-16T00:37:17.576Z,19.96
2022-11-16T00:39:44.163Z,19.95
2022-11-16T00:42:10.722Z,19.93
2022-11-16T00:44:37.359Z,19.90
2022-11-16T00:47:04.038Z,19.88
2022-11-16T00:49:30.669Z,19.87
2022-11-16T00:51:57.238Z,19.87
2022-11-16T00:54:23.897Z,19.84
2022-11-16T00:56:50.454Z,19.82
2022-11-16T00:59:17.029Z,19.82
2022-11-16T01:01:43.762Z,19.82
2022-11-16T01:04:10.516Z,19.79
2022-11-16T01:06:37.067Z,19.80
2022-11-16T01:09:03.793Z,19.78
2022-11-16T01:11:48.691Z,19.77
2022-11-16T01:14:15.291Z,19.75
2022-11-16T01:16:41.918Z,19.75
2022-11-16T01:19:08.500Z,19.73
2022-11-16T01:21:35.093Z,19.73
2022-11-16T01:24:01.629Z,19.73
2022-11-16T01:26:28.182Z,19.73
2022-11-16T01:28:54.812Z,19.71
2022-11-16T01:31:21.446Z,19.66
2022-11-16T01:33:47.983Z,19.65
2022-11-16T01:36:16.914Z,19.64
2022-11-16T01:38:44.184Z,19.63
2022-11-16T01:41:14.238Z,19.62
2022-11-16T01:43:56.307Z,19.61
2022-11-16T01:46:23.405Z,19.61
2022-11-16T01:48:51.795Z,19.61
2022-11-16T01:51:18.384Z,19.59
2022-11-16T01:53:44.978Z,19.58
2022-11-16T01:56:11.539Z,19.57
2022-11-16T01:58:38.112Z,19.57
2022-11-16T02:01:04.741Z,19.56
2022-11-16T02:03:31.391Z,19.55
2022-11-16T02:06:16.235Z,19.52
2022-11-16T02:09:26.477Z,19.52
2022-11-16T02:12:06.859Z,19.50
2022-11-16T02:15:16.014Z,19.49
2022-11-16T02:18:07.480Z,19.48
2022-11-16T02:20:52.410Z,19.45
2022-11-16T02:23:29.853Z,19.45
2022-11-16T02:26:27.300Z,19.45
2022-11-16T02:29:15.782Z,19.44
2022-11-16T02:31:46.451Z,19.43
2022-11-16T02:34:14.019Z,19.40
2022-11-16T02:36:40.670Z,19.39
2022-11-16T02:39:09.160Z,19.39
2022-11-16T02:41:36.689Z,19.38
2022-11-16T02:44:06.244Z,19.37
2022-11-16T02:46:36.828Z,19.36
2022-11-16T02:49:03.973Z,19.35
2022-11-16T02:51:30.527Z,19.35
2022-11-16T02:54:18.043Z,19.33
2022-11-16T02:57:02.968Z,19.33
2022-11-16T02:59:36.260Z,19.32
2022-11-16T03:02:12.729Z,19.31
2022-11-16T03:04:45.555Z,19.30
2022-11-16T03:07:13.687Z,19.30
2022-11-16T03:09:40.571Z,19.29
2022-11-16T03:12:08.504Z,19.28
2022-11-16T03:14:55.990Z,19.27
2022-11-16T03:17:27.949Z,19.26
2022-11-16T03:20:08.347Z,19.25
2022-11-16T03:22:51.207Z,19.22
2022-11-16T03:25:19.144Z,19.22
2022-11-16T03:27:53.581Z,19.22
2022-11-16T03:30:23.813Z,19.20
2022-11-16T03:33:20.290Z,19.19
2022-11-16T03:35:52.769Z,19.19
2022-11-16T03:38:19.679Z,19.16
2022-11-16T03:40:46.333Z,19.16
2022-11-16T03:43:12.902Z,19.16
2022-11-16T03:45:39.443Z,19.17
2022-11-16T03:48:07.013Z,19.26
2022-11-16T03:50:33.636Z,19.59
2022-11-16T03:53:00.281Z,20.25
2022-11-16T03:55:26.831Z,20.81
2022-11-16T03:57:53.402Z,21.29
2022-11-16T04:00:22.326Z,22.49
2022-11-16T04:02:48.885Z,24.30
2022-11-16T04:05:33.994Z,26.10
2022-11-16T04:08:19.193Z,27.57
2022-11-16T04:11:04.718Z,28.71
2022-11-16T04:13:51.214Z,29.16
2022-11-16T04:16:36.339Z,29.21
2022-11-16T04:19:21.662Z,29.25
2022-11-16T04:22:09.509Z,29.31
2022-11-16T04:24:38.073Z,29.34
2022-11-16T04:27:24.830Z,29.40
2022-11-16T04:29:51.371Z,29.43
2022-11-16T04:32:36.468Z,29.48
2022-11-16T04:35:21.800Z,29.52
2022-11-16T04:37:52.791Z,29.59
2022-11-16T04:40:20.055Z,29.63
2022-11-16T04:42:53.544Z,29.69
2022-11-16T04:45:38.986Z,29.74
2022-11-16T04:48:07.941Z,29.77
2022-11-16T04:50:34.686Z,29.84
2022-11-16T04:53:01.412Z,29.88
2022-11-16T04:55:27.969Z,29.92
2022-11-16T04:57:54.549Z,29.95
2022-11-16T05:00:21.480Z,29.98
2022-11-16T05:02:48.052Z,30.02
2022-11-16T05:05:14.898Z,30.06
2022-11-16T05:07:41.705Z,30.12
2022-11-16T05:10:08.577Z,30.17
2022-11-16T05:12:35.165Z,30.20
2022-11-16T05:15:01.744Z,30.20
2022-11-16T05:17:28.470Z,30.25
2022-11-16T05:20:13.571Z,30.30
2022-11-16T05:22:40.137Z,30.30
2022-11-16T05:25:07.782Z,30.37
2022-11-16T05:27:34.395Z,30.38
2022-11-16T05:30:00.998Z,30.40
2022-11-16T05:32:27.733Z,30.43
2022-11-16T05:34:54.337Z,30.46
2022-11-16T05:37:26.673Z,30.49
2022-11-16T05:39:54.895Z,30.50
2022-11-16T05:42:21.510Z,30.52
2022-11-16T05:44:48.117Z,30.51
2022-11-16T05:47:14.677Z,30.59
2022-11-16T05:49:41.229Z,30.60
2022-11-16T05:52:07.786Z,30.69
2022-11-16T05:54:34.535Z,30.73
2022-11-16T05:57:01.088Z,30.85
2022-11-16T05:59:29.327Z,30.84
2022-11-16T06:01:55.907Z,30.81
2022-11-16T06:04:24.507Z,30.83
2022-11-16T06:06:51.480Z,30.84
2022-11-16T06:09:18.097Z,30.83
2022-11-16T06:11:44.674Z,30.72
2022-11-16T06:14:11.258Z,30.57
2022-11-16T06:16:37.916Z,30.53
2022-11-16T06:19:04.517Z,30.54
2022-11-16T06:21:31.151Z,30.59
2022-11-16T06:23:57.923Z,30.68
2022-11-16T06:26:24.543Z,30.71
2022-11-16T06:28:53.427Z,30.73
2022-11-16T06:31:19.987Z,30.78
2022-11-16T06:33:46.552Z,30.83
2022-11-16T06:36:13.122Z,30.84
2022-11-16T06:38:39.658Z,30.77
2022-11-16T06:41:06.231Z,30.59
2022-11-16T06:43:32.774Z,30.25
2022-11-16T06:45:59.445Z,29.86
2022-11-16T06:48:26.033Z,29.63
2022-11-16T06:50:55.539Z,29.23
2022-11-16T06:53:27.551Z,28.88
2022-11-16T06:55:55.763Z,28.46
2022-11-16T06:58:22.422Z,28.15
2022-11-16T07:00:49.195Z,27.85
2022-11-16T07:03:15.796Z,27.44
2022-11-16T07:05:42.370Z,27.10
2022-11-16T07:08:09.469Z,26.95
2022-11-16T07:10:36.973Z,27.05
2022-11-16T07:13:03.822Z,27.22
2022-11-16T07:15:30.928Z,27.44
2022-11-16T07:17:57.578Z,28.00
2022-11-16T07:20:24.221Z,29.03
2022-11-16T07:22:50.894Z,30.07
2022-11-16T07:25:17.446Z,30.71
2022-11-16T07:27:44.069Z,30.78
2022-11-16T07:30:11.200Z,30.58
2022-11-16T07:32:39.888Z,30.44
2022-11-16T07:35:06.909Z,30.40
2022-11-16T07:37:33.442Z,30.42
2022-11-16T07:40:00.135Z,30.45
2022-11-16T07:42:26.834Z,30.48
2022-11-16T07:44:53.380Z,30.50
2022-11-16T07:47:19.976Z,30.47
2022-11-16T07:49:48.786Z,30.50
2022-11-16T07:52:15.387Z,30.58
2022-11-16T07:54:41.927Z,30.62
2022-11-16T07:57:08.610Z,30.60
2022-11-16T07:59:35.225Z,30.63
2022-11-16T08:02:01.847Z,30.63
2022-11-16T08:04:28.448Z,30.71
2022-11-16T08:06:55.115Z,30.72
2022-11-16T08:09:21.769Z,30.71
2022-11-16T08:11:48.398Z,30.84
2022-11-16T08:14:15.710Z,30.96
2022-11-16T08:16:42.298Z,31.03
2022-11-16T08:19:08.850Z,30.97
2022-11-16T08:21:35.467Z,30.97
2022-11-16T08:24:02.048Z,30.83
2022-11-16T08:26:28.654Z,30.82
2022-11-16T08:28:56.540Z,30.86
2022-11-16T08:31:25.347Z,30.86
2022-11-16T08:33:52.167Z,30.87
2022-11-16T08:36:18.945Z,30.88
2022-11-16T08:38:46.309Z,30.85
2022-11-16T08:41:13.037Z,30.79
2022-11-16T08:43:40.445Z,30.75
2022-11-16T08:46:10.252Z,30.77
2022-11-16T08:48:37.509Z,30.76
2022-11-16T08:51:21.111Z,30.83
2022-11-16T08:53:49.199Z,30.87
2022-11-16T08:56:17.224Z,30.95
2022-11-16T08:58:44.373Z,30.94
2022-11-16T09:01:13.859Z,31.04
2022-11-16T09:03:41.033Z,31.10
2022-11-16T09:06:07.959Z,31.10
2022-11-16T09:08:35.852Z,30.99
2022-11-16T09:11:06.432Z,30.93
2022-11-16T09:13:33.206Z,30.85
2022-11-16T09:16:00.378Z,30.83
2022-11-16T09:18:27.393Z,30.92
2022-11-16T09:20:54.094Z,30.95
2022-11-16T09:23:25.111Z,31.08
2022-11-16T09:25:52.190Z,31.17
2022-11-16T09:28:18.889Z,31.13
2022-11-16T09:30:45.852Z,31.10
2022-11-16T09:33:13.344Z,31.09
2022-11-16T09:35:40.037Z,31.10
2022-11-16T09:38:06.827Z,31.12
2022-11-16T09:40:35.322Z,31.16
2022-11-16T09:43:01.974Z,31.19
2022-11-16T09:45:33.289Z,31.19
2022-11-16T09:48:02.884Z,31.14
2022-11-16T09:50:29.323Z,31.19
2022-11-16T09:52:57.293Z,31.27
2022-11-16T09:55:27.289Z,31.25
2022-11-16T09:57:55.681Z,31.28
2022-11-16T10:00:25.737Z,31.31
2022-11-16T10:03:04.659Z,31.30
2022-11-16T10:05:36.909Z,31.28
2022-11-16T10:08:10.165Z,31.21
2022-11-16T10:10:43.103Z,31.01
2022-11-16T10:13:33.219Z,30.80
2022-11-16T10:16:18.310Z,30.53
2022-11-16T10:19:23.338Z,30.23
2022-11-16T10:22:12.264Z,29.79
2022-11-16T10:24:58.368Z,29.44
2022-11-16T10:27:51.924Z,29.03
2022-11-16T10:30:21.333Z,28.70
2022-11-16T10:32:49.604Z,28.37
2022-11-16T10:35:29.851Z,28.06
2022-11-16T10:37:59.035Z,27.74
2022-11-16T10:40:29.105Z,27.57
2022-11-16T10:43:03.125Z,27.65
2022-11-16T10:45:40.689Z,27.82
2022-11-16T10:48:41.262Z,28.01
2022-11-16T10:51:08.338Z,28.39
2022-11-16T10:53:39.619Z,29.24
2022-11-16T10:56:22.234Z,29.98
2022-11-16T10:59:08.195Z,30.52
2022-11-16T11:01:41.773Z,30.61
2022-11-16T11:04:30.171Z,30.56
2022-11-16T11:07:01.008Z,30.57
2022-11-16T11:09:32.173Z,30.56
2022-11-16T11:12:21.059Z,30.60
2022-11-16T11:15:02.975Z,30.59
2022-11-16T11:17:30.534Z,30.68
2022-11-16T11:20:27.818Z,30.71
2022-11-16T11:22:54.536Z,30.73
2022-11-16T11:25:38.770Z,30.75
2022-11-16T11:28:18.862Z,30.76
2022-11-16T11:30:58.779Z,30.83
2022-11-16T11:33:27.305Z,30.87
2022-11-16T11:36:01.829Z,30.90
2022-11-16T11:38:28.429Z,30.94
2022-11-16T11:40:57.875Z,30.95
2022-11-16T11:43:25.180Z,30.91
2022-11-16T11:46:04.038Z,30.84
2022-11-16T11:48:41.791Z,30.81
2022-11-16T11:51:32.780Z,30.76
2022-11-16T11:54:00.380Z,30.61
2022-11-16T11:56:27.966Z,30.65
2022-11-16T11:58:54.648Z,30.72
2022-11-16T12:01:29.908Z,30.65
2022-11-16T12:03:59.361Z,30.64
2022-11-16T12:06:43.634Z,30.59
2022-11-16T12:09:29.503Z,30.62
2022-11-16T12:11:59.560Z,30.61
2022-11-16T12:14:59.181Z,30.52
2022-11-16T12:17:39.786Z,30.57
2022-11-16T12:20:16.620Z,30.59
2022-11-16T12:22:52.183Z,30.54
2022-11-16T12:25:25.625Z,30.52
2022-11-16T12:28:14.059Z,30.57
2022-11-16T12:31:05.982Z,30.57
2022-11-16T12:33:50.628Z,30.56
2022-11-16T12:36:37.853Z,30.54
2022-11-16T12:39:10.520Z,30.61
2022-11-16T12:41:59.971Z,30.60
2022-11-16T12:44:50.960Z,30.55
2022-11-16T12:47:28.914Z,30.68
2022-11-16T12:50:12.879Z,30.77
2022-11-16T12:52:52.486Z,30.74
2022-11-16T12:55:26.421Z,30.54
2022-11-16T12:58:12.338Z,30.66
2022-11-16T13:00:53.235Z,30.71
2022-11-16T13:03:38.339Z,30.73
2022-11-16T13:06:06.923Z,30.67
2022-11-16T13:08:52.389Z,30.68
2022-11-16T13:11:22.834Z,30.69
2022-11-16T13:13:53.604Z,30.70
2022-11-16T13:16:20.746Z,30.63
2022-11-16T13:18:47.304Z,30.59
2022-11-16T13:21:19.109Z,30.63
2022-11-16T13:24:04.412Z,30.68
2022-11-16T13:26:36.288Z,30.61
2022-11-16T13:29:30.286Z,30.60
2022-11-16T13:32:01.035Z,30.61
2022-11-16T13:34:31.478Z,30.55
2022-11-16T13:36:58.070Z,30.32
2022-11-16T13:40:00.514Z,30.07
2022-11-16T13:42:27.090Z,29.81
2022-11-16T13:44:53.729Z,29.55
2022-11-16T13:47:24.856Z,29.28
2022-11-16T13:49:56.693Z,29.02
2022-11-16T13:52:26.646Z,28.75
2022-11-16T13:55:22.203Z,28.48
2022-11-16T13:57:51.010Z,28.17
2022-11-16T14:00:34.046Z,27.90
2022-11-16T14:03:15.949Z,27.68
2022-11-16T14:05:43.843Z,27.68
2022-11-16T14:08:19.297Z,27.84
2022-11-16T14:10:48.710Z,28.00
2022-11-16T14:13:37.381Z,28.31
2022-11-16T14:16:16.590Z,29.11
2022-11-16T14:18:43.688Z,30.08
2022-11-16T14:21:19.280Z,30.68
2022-11-16T14:23:54.544Z,30.81
2022-11-16T14:26:32.405Z,30.78
2022-11-16T14:29:15.473Z,30.78
2022-11-16T14:31:49.847Z,30.80
2022-11-16T14:34:18.676Z,30.85
2022-11-16T14:36:45.631Z,30.89
2022-11-16T14:39:29.024Z,30.90
2022-11-16T14:42:15.213Z,30.96
2022-11-16T14:44:41.897Z,31.01
2022-11-16T14:47:18.986Z,31.04
2022-11-16T14:49:45.650Z,31.00
2022-11-16T14:52:12.225Z,30.94
2022-11-16T14:54:42.495Z,30.82
2022-11-16T14:57:19.859Z,30.65
2022-11-16T14:59:46.424Z,30.61
2022-11-16T15:02:33.147Z,30.50
2022-11-16T15:05:00.129Z,30.53
2022-11-16T15:07:26.762Z,30.58
2022-11-16T15:09:54.902Z,30.57
2022-11-16T15:12:41.825Z,30.57
2022-11-16T15:15:11.400Z,30.67
2022-11-16T15:17:39.520Z,30.71
2022-11-16T15:20:16.530Z,30.68
2022-11-16T15:22:44.690Z,30.69
2022-11-16T15:25:33.597Z,30.73
2022-11-16T15:28:01.845Z,30.80
2022-11-16T15:30:30.486Z,30.75
2022-11-16T15:32:57.084Z,30.76
2022-11-16T15:35:31.299Z,30.82
2022-11-16T15:38:17.696Z,30.77
2022-11-16T15:40:49.479Z,30.78
2022-11-16T15:43:16.055Z,30.82
2022-11-16T15:45:42.905Z,30.77
2022-11-16T15:48:12.214Z,30.76
2022-11-16T15:50:38.786Z,30.81
2022-11-16T15:53:05.382Z,30.79
2022-11-16T15:55:34.230Z,30.75
2022-11-16T15:58:01.382Z,30.79
2022-11-16T16:00:28.360Z,30.82
2022-11-16T16:03:02.551Z,30.76
2022-11-16T16:05:39.742Z,30.77
2022-11-16T16:08:06.846Z,30.84
2022-11-16T16:10:33.446Z,30.89
2022-11-16T16:13:00.692Z,30.81
2022-11-16T16:15:33.891Z,30.78
2022-11-16T16:18:00.765Z,30.81
2022-11-16T16:20:31.205Z,30.76
2022-11-16T16:23:15.185Z,30.73
2022-11-16T16:25:46.028Z,30.78
2022-11-16T16:28:16.655Z,30.81
2022-11-16T16:30:43.226Z,30.74
2022-11-16T16:33:15.501Z,30.74
2022-11-16T16:35:42.085Z,30.79
2022-11-16T16:38:09.441Z,30.75
2022-11-16T16:40:36.079Z,30.72
2022-11-16T16:43:02.639Z,30.76
2022-11-16T16:45:41.388Z,30.80
2022-11-16T16:48:09.490Z,30.75
2022-11-16T16:50:36.535Z,30.74
2022-11-16T16:53:03.157Z,30.78
2022-11-16T16:55:32.871Z,30.80
2022-11-16T16:58:02.890Z,30.74
2022-11-16T17:00:29.481Z,30.73
2022-11-16T17:02:56.205Z,30.73
2022-11-16T17:05:22.782Z,30.64
2022-11-16T17:07:49.479Z,30.49
2022-11-16T17:10:17.986Z,30.30
2022-11-16T17:12:44.570Z,30.07
2022-11-16T17:15:15.056Z,29.82
2022-11-16T17:17:44.626Z,29.56
2022-11-16T17:20:11.863Z,29.29
2022-11-16T17:22:38.523Z,29.01
2022-11-16T17:25:05.546Z,28.77
2022-11-16T17:27:32.314Z,28.51
2022-11-16T17:29:58.957Z,28.25
2022-11-16T17:32:25.607Z,28.13
2022-11-16T17:34:52.182Z,28.24
2022-11-16T17:37:18.859Z,28.43
2022-11-16T17:39:45.406Z,28.61
2022-11-16T17:42:12.015Z,28.94
2022-11-16T17:44:38.576Z,29.53
2022-11-16T17:47:05.228Z,30.25
2022-11-16T17:49:31.783Z,30.77
2022-11-16T17:51:58.337Z,30.95
2022-11-16T17:54:24.889Z,30.92
2022-11-16T17:56:51.525Z,30.94
2022-11-16T17:59:18.094Z,30.93
2022-11-16T18:01:45.952Z,30.96
2022-11-16T18:04:12.562Z,31.00
2022-11-16T18:06:39.987Z,31.03
2022-11-16T18:09:06.584Z,31.06
2022-11-16T18:11:33.338Z,31.10
2022-11-16T18:14:00.777Z,31.12
2022-11-16T18:16:31.533Z,31.14
2022-11-16T18:19:02.589Z,31.03
2022-11-16T18:21:29.322Z,30.95
2022-11-16T18:23:56.035Z,30.95
2022-11-16T18:26:23.729Z,30.85
2022-11-16T18:28:51.520Z,30.83
2022-11-16T18:31:19.994Z,30.80
2022-11-16T18:33:47.463Z,30.75
2022-11-16T18:36:14.069Z,30.73
2022-11-16T18:38:40.689Z,30.76
2022-11-16T18:41:13.781Z,30.75
2022-11-16T18:43:41.090Z,30.72
2022-11-16T18:46:07.863Z,30.73
2022-11-16T18:48:35.786Z,30.75
2022-11-16T18:51:03.105Z,30.68
2022-11-16T18:53:30.063Z,30.66
2022-11-16T18:55:58.292Z,30.72
2022-11-16T18:58:49.389Z,30.72
2022-11-16T19:01:14.000Z,30.66
2022-11-16T19:03:40.660Z,30.68
2022-11-16T19:06:07.790Z,30.69
2022-11-16T19:08:34.843Z,30.64
2022-11-16T19:11:11.618Z,30.65
2022-11-16T19:13:38.775Z,30.71
2022-11-16T19:16:06.066Z,30.68
2022-11-16T19:18:32.707Z,30.65
2022-11-16T19:21:10.011Z,30.69
2022-11-16T19:23:41.019Z,30.71
2022-11-16T19:26:07.723Z,30.66
2022-11-16T19:28:37.968Z,30.66
2022-11-16T19:31:08.896Z,30.71
2022-11-16T19:33:35.992Z,30.66
2022-11-16T19:36:09.642Z,30.64
2022-11-16T19:38:36.455Z,30.67
2022-11-16T19:41:03.138Z,30.73
2022-11-16T19:43:29.711Z,30.69
2022-11-16T19:45:56.330Z,30.67
2022-11-16T19:48:22.895Z,30.70
2022-11-16T19:50:49.468Z,30.68
2022-11-16T19:53:16.042Z,30.64
2022-11-16T19:55:44.224Z,30.68
2022-11-16T19:58:12.836Z,30.69
2022-11-16T20:00:39.402Z,30.62
2022-11-16T20:03:06.061Z,30.50
2022-11-16T20:05:33.220Z,30.29
2022-11-16T20:07:59.778Z,30.08
2022-11-16T20:10:29.010Z,29.87
2022-11-16T20:12:56.885Z,29.63
2022-11-16T20:15:25.392Z,29.40
2022-11-16T20:17:52.376Z,29.16
2022-11-16T20:20:19.155Z,28.93
2022-11-16T20:22:47.460Z,28.67
2022-11-16T20:25:16.888Z,28.43
2022-11-16T20:27:43.482Z,28.17
2022-11-16T20:30:10.567Z,27.91
2022-11-16T20:32:37.173Z,27.69
2022-11-16T20:35:03.882Z,27.38
2022-11-16T20:37:30.441Z,27.04
2022-11-16T20:39:57.234Z,26.75
2022-11-16T20:42:24.152Z,26.49
2022-11-16T20:44:50.751Z,26.29
2022-11-16T20:47:17.333Z,26.07
2022-11-16T20:49:43.895Z,25.91
2022-11-16T20:52:10.454Z,25.69
2022-11-16T20:54:37.028Z,25.52
2022-11-16T20:57:04.650Z,25.40
2022-11-16T20:59:31.296Z,25.25
2022-11-16T21:01:57.864Z,25.04
2022-11-16T21:04:24.474Z,24.95
2022-11-16T21:06:51.088Z,24.82
2022-11-16T21:09:22.641Z,24.66
2022-11-16T21:12:08.035Z,24.50
2022-11-16T21:14:34.669Z,24.40
2022-11-16T21:17:01.279Z,24.30
2022-11-16T21:19:27.847Z,24.19
2022-11-16T21:21:54.403Z,24.09
2022-11-16T21:24:21.918Z,23.93
2022-11-16T21:26:48.494Z,23.84
2022-11-16T21:29:15.146Z,23.77
2022-11-16T21:31:41.713Z,23.72
2022-11-16T21:34:08.304Z,23.66
2022-11-16T21:36:36.193Z,23.57
2022-11-16T21:39:03.099Z,23.51
2022-11-16T21:41:29.741Z,23.43
2022-11-16T21:43:56.433Z,23.33
2022-11-16T21:46:27.202Z,23.28
2022-11-16T21:48:55.407Z,23.20
2022-11-16T21:51:24.714Z,23.10
2022-11-16T21:53:51.307Z,23.03
2022-11-16T21:56:18.984Z,22.97
2022-11-16T21:58:45.742Z,22.86
2022-11-16T22:01:12.672Z,22.83
2022-11-16T22:03:39.318Z,22.80
2022-11-16T22:06:25.734Z,22.74
2022-11-16T22:08:52.657Z,22.70
2022-11-16T22:11:22.231Z,22.63
2022-11-16T22:13:49.425Z,22.57
2022-11-16T22:16:16.383Z,22.49
2022-11-16T22:18:43.216Z,22.44
2022-11-16T22:21:09.889Z,22.37
2022-11-16T22:23:36.920Z,22.28
2022-11-16T22:26:08.233Z,22.24
2022-11-16T22:28:35.352Z,22.20
2022-11-16T22:31:06.529Z,22.13
2022-11-16T22:33:33.567Z,22.05
2022-11-16T22:36:00.559Z,21.94
2022-11-16T22:38:27.206Z,21.86
2022-11-16T22:40:55.303Z,21.77
2022-11-16T22:43:23.297Z,21.73
2022-11-16T22:45:49.917Z,21.69
2022-11-16T22:48:16.526Z,21.62
2022-11-16T22:50:43.361Z,21.57
2022-11-16T22:53:10.267Z,21.54
2022-11-16T22:55:37.711Z,21.51
2022-11-16T22:58:04.740Z,21.45
2022-11-16T23:00:31.497Z,21.41
2022-11-16T23:02:58.164Z,21.38
2022-11-16T23:05:24.796Z,21.33
2022-11-16T23:07:51.357Z,21.29
2022-11-16T23:10:18.110Z,21.26
2022-11-16T23:13:03.226Z,21.23
2022-11-16T23:15:48.635Z,21.19
2022-11-16T23:18:15.339Z,21.17
2022-11-16T23:21:00.375Z,21.13
2022-11-16T23:23:45.854Z,21.10
2022-11-16T23:26:33.513Z,21.05
2022-11-16T23:29:00.287Z,21.02
2022-11-16T23:31:26.891Z,20.98
2022-11-16T23:33:53.443Z,20.96
2022-11-16T23:36:20.038Z,20.95
2022-11-16T23:38:46.600Z,20.92
2022-11-16T23:41:31.814Z,20.91
2022-11-16T23:43:58.444Z,20.89
2022-11-16T23:46:29.100Z,20.86
2022-11-16T23:48:55.824Z,20.82
2022-11-16T23:51:23.467Z,20.81
2022-11-16T23:53:51.732Z,20.79
2022-11-16T23:56:19.311Z,20.77
2022-11-16T23:58:46.086Z,20.74
